Wangaratta Aerodrome, Australia
Current Conditions -  °F | °C
As of 10:00 PM on Friday 31 Oct 2014 (Local Time) from YMAY Reporting Station
Clear Clear  
Wind Chill: 77°   Ceiling: Unl
Heat Index: 77°   Visibility: 6mi
Dew Point: 37°   Wind: 7mph
Humidity: 24%   Direction: 330°NNW
Pressure: 29.59"   Gusts: NA
Location:  36.42°S, 146.3°E
Report Text: YMAY 311100Z AUTO 33006KT 9999 // NCD 25/03 Q1002
Loading
Personal Weather Stations






























Interactive Weather Map
Tropical Storm Tracking
New forecast layout! Learn more

10-Day Weather Forecast

Advertisements
Track Severe Weather on mobile